createdAt,value
2022-11-15T00:00:55.927Z,50.877220
2022-11-15T00:01:55.965Z,50.877235
2022-11-15T00:02:55.890Z,50.877239
2022-11-15T00:03:55.890Z,50.877251
2022-11-15T00:04:55.882Z,50.877262
2022-11-15T00:05:55.887Z,50.877232
2022-11-15T00:06:55.922Z,50.877224
2022-11-15T00:07:56.424Z,50.877220
2022-11-15T00:08:56.855Z,50.877239
2022-11-15T00:09:55.839Z,50.877235
2022-11-15T00:10:55.834Z,50.877228
2022-11-15T00:11:55.808Z,50.877228
2022-11-15T00:12:55.841Z,50.877205
2022-11-15T00:13:55.861Z,50.877205
2022-11-15T00:14:55.781Z,50.877171
2022-11-15T00:15:55.761Z,50.877155
2022-11-15T00:16:55.762Z,50.877155
2022-11-15T00:17:55.752Z,50.877167
2022-11-15T00:18:55.760Z,50.877159
2022-11-15T00:19:55.740Z,50.877148
2022-11-15T00:20:55.715Z,50.877178
2022-11-15T00:21:55.744Z,50.877201
2022-11-15T00:22:55.697Z,50.877171
2022-11-15T00:23:55.686Z,50.877094
2022-11-15T00:24:55.694Z,50.877113
2022-11-15T00:25:55.664Z,50.877113
2022-11-15T00:26:55.653Z,50.877209
2022-11-15T00:27:55.642Z,50.877167
2022-11-15T00:28:55.643Z,50.877193
2022-11-15T00:29:55.636Z,50.877148
2022-11-15T00:30:55.619Z,50.877182
2022-11-15T00:31:55.596Z,50.877182
2022-11-15T00:32:55.619Z,50.877178
2022-11-15T00:33:55.576Z,50.877167
2022-11-15T00:34:55.581Z,50.877167
2022-11-15T00:35:55.566Z,50.877174
2022-11-15T00:36:55.611Z,50.877174
2022-11-15T00:37:55.542Z,50.877171
2022-11-15T00:38:55.539Z,50.877159
2022-11-15T00:39:55.530Z,50.877140
2022-11-15T00:40:55.585Z,50.877178
2022-11-15T00:41:55.527Z,50.877174
2022-11-15T00:42:55.498Z,50.877174
2022-11-15T00:43:55.486Z,50.877174
2022-11-15T00:44:55.480Z,50.877178
2022-11-15T00:45:55.471Z,50.877182
2022-11-15T00:46:55.466Z,50.877182
2022-11-15T00:47:55.444Z,50.877178
2022-11-15T00:48:55.443Z,50.877178
2022-11-15T00:49:55.453Z,50.877167
2022-11-15T00:50:55.419Z,50.877182
2022-11-15T00:51:55.421Z,50.877193
2022-11-15T00:52:55.426Z,50.877174
2022-11-15T00:53:55.385Z,50.877171
2022-11-15T00:54:55.374Z,50.877182
2022-11-15T00:55:55.370Z,50.877163
2022-11-15T00:56:55.414Z,50.877159
2022-11-15T00:57:55.365Z,50.877151
2022-11-15T00:58:55.347Z,50.877144
2022-11-15T00:59:55.331Z,50.877155
2022-11-15T01:00:55.418Z,50.877159
2022-11-15T01:01:56.314Z,50.877190
2022-11-15T01:02:55.302Z,50.877186
2022-11-15T01:03:59.987Z,50.877155
2022-11-15T01:04:57.285Z,50.877167
2022-11-15T01:05:55.293Z,50.877186
2022-11-15T01:06:55.287Z,50.877144
2022-11-15T01:07:55.261Z,50.877129
2022-11-15T01:08:55.237Z,50.877171
2022-11-15T01:09:55.256Z,50.877148
2022-11-15T01:10:55.220Z,50.877182
2022-11-15T01:11:55.211Z,50.877171
2022-11-15T01:12:55.199Z,50.877178
2022-11-15T01:13:55.206Z,50.877159
2022-11-15T01:14:55.176Z,50.877182
2022-11-15T01:15:55.172Z,50.877201
2022-11-15T01:16:55.180Z,50.877190
2022-11-15T01:17:55.146Z,50.877197
2022-11-15T01:18:55.153Z,50.877193
2022-11-15T01:19:55.137Z,50.877193
2022-11-15T01:20:55.121Z,50.877197
2022-11-15T01:21:55.118Z,50.877182
2022-11-15T01:22:55.102Z,50.877178
2022-11-15T01:23:55.123Z,50.877174
2022-11-15T01:24:55.107Z,50.877163
2022-11-15T01:25:55.064Z,50.877174
2022-11-15T01:26:55.121Z,50.877159
2022-11-15T01:27:55.082Z,50.877171
2022-11-15T01:28:55.038Z,50.877201
2022-11-15T01:29:55.026Z,50.877163
2022-11-15T01:30:55.035Z,50.877190
2022-11-15T01:31:55.015Z,50.877193
2022-11-15T01:32:55.001Z,50.877197
2022-11-15T01:33:55.027Z,50.877193
2022-11-15T01:34:54.994Z,50.877171
2022-11-15T01:35:54.999Z,50.877167
2022-11-15T01:36:54.960Z,50.877159
2022-11-15T01:37:54.948Z,50.877148
2022-11-15T01:38:54.957Z,50.877167
2022-11-15T01:39:54.939Z,50.877182
2022-11-15T01:40:54.923Z,50.877209
2022-11-15T01:41:54.917Z,50.877190
2022-11-15T01:42:54.923Z,50.877163
2022-11-15T01:43:54.894Z,50.877174
2022-11-15T01:44:54.889Z,50.877182
2022-11-15T01:45:54.908Z,50.877220
2022-11-15T01:46:54.918Z,50.877213
2022-11-15T01:47:54.876Z,50.877159
2022-11-15T01:48:54.851Z,50.877178
2022-11-15T01:49:54.839Z,50.877190
2022-11-15T01:50:54.938Z,50.877205
2022-11-15T01:51:54.844Z,50.877163
2022-11-15T01:52:54.834Z,50.877186
2022-11-15T01:53:54.802Z,50.877190
2022-11-15T01:54:54.792Z,50.877197
2022-11-15T01:55:54.781Z,50.877174
2022-11-15T01:56:54.820Z,50.877182
2022-11-15T01:57:54.825Z,50.877190
2022-11-15T01:58:54.747Z,50.877190
2022-11-15T01:59:55.756Z,50.877193
2022-11-15T02:00:54.769Z,50.877182
2022-11-15T02:01:54.814Z,50.877193
2022-11-15T02:02:54.722Z,50.877186
2022-11-15T02:03:54.681Z,50.877193
2022-11-15T02:04:54.697Z,50.877193
2022-11-15T02:05:54.689Z,50.877190
2022-11-15T02:06:54.735Z,50.877193
2022-11-15T02:07:54.654Z,50.877193
2022-11-15T02:08:54.710Z,50.877190
2022-11-15T02:09:54.679Z,50.877178
2022-11-15T02:10:54.636Z,50.877186
2022-11-15T02:11:54.617Z,50.877197
2022-11-15T02:12:54.610Z,50.877209
2022-11-15T02:13:54.626Z,50.877193
2022-11-15T02:14:54.604Z,50.877216
2022-11-15T02:15:56.937Z,50.877201
2022-11-15T02:16:54.630Z,50.877197
2022-11-15T02:17:54.600Z,50.877209
2022-11-15T02:18:54.571Z,50.877197
2022-11-15T02:19:54.556Z,50.877155
2022-11-15T02:20:54.540Z,50.877201
2022-11-15T02:21:54.533Z,50.877197
2022-11-15T02:22:54.535Z,50.877155
2022-11-15T02:23:54.514Z,50.877186
2022-11-15T02:24:54.494Z,50.877155
2022-11-15T02:25:54.487Z,50.877186
2022-11-15T02:26:54.471Z,50.877209
2022-11-15T02:27:54.480Z,50.877216
2022-11-15T02:28:54.489Z,50.877171
2022-11-15T02:29:54.449Z,50.877209
2022-11-15T02:30:54.468Z,50.877201
2022-11-15T02:31:54.425Z,50.877193
2022-11-15T02:32:54.435Z,50.877213
2022-11-15T02:33:54.413Z,50.877151
2022-11-15T02:34:54.427Z,50.877151
2022-11-15T02:35:54.387Z,50.877193
2022-11-15T02:36:54.383Z,50.877258
2022-11-15T02:37:54.374Z,50.877254
2022-11-15T02:38:54.396Z,50.877216
2022-11-15T02:39:54.379Z,50.877182
2022-11-15T02:40:54.346Z,50.877186
2022-11-15T02:41:54.339Z,50.877205
2022-11-15T02:42:54.325Z,50.877285
2022-11-15T02:43:54.343Z,50.877216
2022-11-15T02:44:54.306Z,50.877247
2022-11-15T02:45:54.318Z,50.877220
2022-11-15T02:46:54.282Z,50.877197
2022-11-15T02:47:54.286Z,50.877213
2022-11-15T02:48:54.269Z,50.877190
2022-11-15T02:49:54.283Z,50.877190
2022-11-15T02:50:54.248Z,50.877167
2022-11-15T02:51:54.265Z,50.877178
2022-11-15T02:53:26.187Z,50.877174
2022-11-15T02:53:54.352Z,50.877182
2022-11-15T02:54:54.255Z,50.877182
2022-11-15T02:55:54.219Z,50.877171
2022-11-15T02:56:54.213Z,50.877182
2022-11-15T02:57:54.201Z,50.877205
2022-11-15T02:58:54.178Z,50.877193
2022-11-15T02:59:54.196Z,50.877186
2022-11-15T03:00:54.204Z,50.877171
2022-11-15T03:01:54.169Z,50.877171
2022-11-15T03:02:54.140Z,50.877186
2022-11-15T03:03:54.141Z,50.877277
2022-11-15T03:04:54.115Z,50.877205
2022-11-15T03:05:54.128Z,50.877155
2022-11-15T03:06:54.263Z,50.877155
2022-11-15T03:07:59.403Z,50.877155
2022-11-15T03:08:55.086Z,50.877155
2022-11-15T03:09:54.066Z,50.877155
2022-11-15T03:10:54.116Z,50.877155
2022-11-15T03:11:54.073Z,50.877148
2022-11-15T03:12:54.057Z,50.877148
2022-11-15T03:13:54.036Z,50.877148
2022-11-15T03:14:54.041Z,50.877171
2022-11-15T03:15:54.080Z,50.877144
2022-11-15T03:16:54.025Z,50.877190
2022-11-15T03:17:53.993Z,50.877205
2022-11-15T03:18:54.018Z,50.877216
2022-11-15T03:19:53.984Z,50.877193
2022-11-15T03:20:54.057Z,50.877209
2022-11-15T03:21:53.961Z,50.877197
2022-11-15T03:22:53.960Z,50.877197
2022-11-15T03:23:53.957Z,50.877213
2022-11-15T03:24:54.040Z,50.877182
2022-11-15T03:25:53.930Z,50.877213
2022-11-15T03:26:53.933Z,50.877201
2022-11-15T03:27:53.911Z,50.877193
2022-11-15T03:28:53.890Z,50.877201
2022-11-15T03:29:53.875Z,50.877182
2022-11-15T03:30:54.017Z,50.877205
2022-11-15T03:31:53.848Z,50.877186
2022-11-15T03:32:53.891Z,50.877201
2022-11-15T03:33:53.885Z,50.877201
2022-11-15T03:34:54.000Z,50.877178
2022-11-15T03:35:53.824Z,50.877148
2022-11-15T03:36:53.840Z,50.877148
2022-11-15T03:37:53.883Z,50.877247
2022-11-15T03:38:53.794Z,50.877205
2022-11-15T03:39:53.881Z,50.877209
2022-11-15T03:40:53.795Z,50.877220
2022-11-15T03:41:53.779Z,50.877201
2022-11-15T03:42:53.769Z,50.877186
2022-11-15T03:43:53.764Z,50.877174
2022-11-15T03:44:53.787Z,50.877197
2022-11-15T03:45:53.757Z,50.877201
2022-11-15T03:46:53.780Z,50.877182
2022-11-15T03:47:53.793Z,50.877163
2022-11-15T03:48:53.759Z,50.877197
2022-11-15T03:49:53.758Z,50.877182
2022-11-15T03:50:53.708Z,50.877167
2022-11-15T03:51:53.678Z,50.877136
2022-11-15T03:52:53.678Z,50.877132
2022-11-15T03:53:53.691Z,50.877151
2022-11-15T03:54:53.670Z,50.877163
2022-11-15T03:55:53.668Z,50.877155
2022-11-15T03:56:53.703Z,50.877159
2022-11-15T03:57:53.666Z,50.877182
2022-11-15T03:58:53.616Z,50.877209
2022-11-15T03:59:53.648Z,50.877182
2022-11-15T04:00:53.661Z,50.877232
2022-11-15T04:01:53.590Z,50.877197
2022-11-15T04:02:53.578Z,50.877209
2022-11-15T04:03:53.576Z,50.877190
2022-11-15T04:04:53.578Z,50.877174
2022-11-15T04:05:53.542Z,50.877174
2022-11-15T04:06:53.610Z,50.877052
2022-11-15T04:07:53.537Z,50.877155
2022-11-15T04:08:53.618Z,50.877102
2022-11-15T04:09:53.515Z,50.877144
2022-11-15T04:10:53.497Z,50.877216
2022-11-15T04:11:53.483Z,50.877197
2022-11-15T04:12:53.461Z,50.877163
2022-11-15T04:13:53.505Z,50.877254
2022-11-15T04:14:53.483Z,50.877262
2022-11-15T04:15:53.457Z,50.877155
2022-11-15T04:16:53.539Z,50.877136
2022-11-15T04:17:53.433Z,50.877178
2022-11-15T04:18:53.525Z,50.877045
2022-11-15T04:19:53.412Z,50.877098
2022-11-15T04:20:53.422Z,50.877113
2022-11-15T04:21:53.405Z,50.877110
2022-11-15T04:22:53.377Z,50.877071
2022-11-15T04:23:53.424Z,50.877144
2022-11-15T04:24:53.372Z,50.877125
2022-11-15T04:25:53.372Z,50.876999
2022-11-15T04:26:53.351Z,50.876965
2022-11-15T04:27:53.333Z,50.877064
2022-11-15T04:28:53.360Z,50.877098
2022-11-15T04:29:53.323Z,50.877087
2022-11-15T04:30:53.309Z,50.877083
2022-11-15T04:31:53.296Z,50.877117
2022-11-15T04:32:53.285Z,50.877132
2022-11-15T04:33:53.291Z,50.877121
2022-11-15T04:34:53.256Z,50.877102
2022-11-15T04:35:53.243Z,50.877125
2022-11-15T04:36:53.235Z,50.877190
2022-11-15T04:37:53.252Z,50.877144
2022-11-15T04:38:53.300Z,50.877079
2022-11-15T04:39:53.243Z,50.877075
2022-11-15T04:40:53.293Z,50.876995
2022-11-15T04:41:53.211Z,50.877056
2022-11-15T04:42:53.204Z,50.877037
2022-11-15T04:43:53.193Z,50.877048
2022-11-15T04:44:53.161Z,50.877193
2022-11-15T04:45:53.158Z,50.877159
2022-11-15T04:46:53.149Z,50.877159
2022-11-15T04:47:53.156Z,50.877029
2022-11-15T04:48:58.231Z,50.877087
2022-11-15T04:49:55.117Z,50.877090
2022-11-15T04:50:53.099Z,50.877121
2022-11-15T04:51:53.114Z,50.877201
2022-11-15T04:52:53.093Z,50.877117
2022-11-15T04:53:53.109Z,50.877121
2022-11-15T04:54:53.077Z,50.877121
2022-11-15T04:55:53.071Z,50.877121
2022-11-15T04:56:53.055Z,50.877121
2022-11-15T04:57:53.243Z,50.877121
2022-11-15T04:58:53.027Z,50.877121
2022-11-15T04:59:53.030Z,50.877140
2022-11-15T05:00:53.118Z,50.877140
2022-11-15T05:01:53.005Z,50.877090
2022-11-15T05:02:52.994Z,50.877106
2022-11-15T05:03:53.019Z,50.877132
2022-11-15T05:04:52.971Z,50.877151
2022-11-15T05:05:53.059Z,50.877136
2022-11-15T05:06:53.098Z,50.877132
2022-11-15T05:07:53.948Z,50.877094
2022-11-15T05:08:52.941Z,50.877125
2022-11-15T05:09:52.949Z,50.877144
2022-11-15T05:10:52.925Z,50.877155
2022-11-15T05:11:52.928Z,50.877148
2022-11-15T05:12:52.931Z,50.877144
2022-11-15T05:13:52.883Z,50.877113
2022-11-15T05:14:52.963Z,50.877102
2022-11-15T05:15:52.882Z,50.877132
2022-11-15T05:16:52.879Z,50.877151
2022-11-15T05:17:52.898Z,50.877136
2022-11-15T05:18:52.844Z,50.877129
2022-11-15T05:19:52.830Z,50.877155
2022-11-15T05:20:52.818Z,50.877125
2022-11-15T05:21:52.815Z,50.877083
2022-11-15T05:22:52.857Z,50.877087
2022-11-15T05:23:52.810Z,50.877113
2022-11-15T05:24:52.772Z,50.877110
2022-11-15T05:25:52.807Z,50.877117
2022-11-15T05:26:52.754Z,50.877106
2022-11-15T05:27:52.750Z,50.877132
2022-11-15T05:28:52.770Z,50.877121
2022-11-15T05:29:52.739Z,50.877102
2022-11-15T05:30:52.714Z,50.877136
2022-11-15T05:31:52.830Z,50.877094
2022-11-15T05:32:52.701Z,50.877121
2022-11-15T05:33:52.708Z,50.877132
2022-11-15T05:34:52.689Z,50.877148
2022-11-15T05:35:52.647Z,50.877106
2022-11-15T05:36:52.654Z,50.877151
2022-11-15T05:37:52.675Z,50.877171
2022-11-15T05:38:52.657Z,50.877144
2022-11-15T05:39:52.653Z,50.877167
2022-11-15T05:40:52.634Z,50.877117
2022-11-15T05:41:52.660Z,50.877209
2022-11-15T05:42:52.606Z,50.877224
2022-11-15T05:43:52.587Z,50.877193
2022-11-15T05:44:52.566Z,50.877193
2022-11-15T05:45:52.635Z,50.877178
2022-11-15T05:46:52.574Z,50.877174
2022-11-15T05:47:52.552Z,50.877201
2022-11-15T05:48:52.579Z,50.877247
2022-11-15T05:49:52.528Z,50.877171
2022-11-15T05:50:52.514Z,50.877220
2022-11-15T05:51:52.510Z,50.877201
2022-11-15T05:52:52.503Z,50.877178
2022-11-15T05:53:52.582Z,50.877144
2022-11-15T05:54:53.522Z,50.877132
2022-11-15T05:55:52.509Z,50.877129
2022-11-15T05:56:52.456Z,50.877121
2022-11-15T05:57:52.438Z,50.877144
2022-11-15T05:58:56.765Z,50.877178
2022-11-15T05:59:53.434Z,50.877140
2022-11-15T06:00:52.491Z,50.877075
2022-11-15T06:01:52.466Z,50.877098
2022-11-15T06:02:52.430Z,50.877026
2022-11-15T06:03:52.417Z,50.877052
2022-11-15T06:04:52.365Z,50.877121
2022-11-15T06:05:52.357Z,50.877125
2022-11-15T06:06:52.455Z,50.877201
2022-11-15T06:07:52.348Z,50.877220
2022-11-15T06:08:52.375Z,50.877216
2022-11-15T06:09:52.478Z,50.877201
2022-11-15T06:10:52.305Z,50.877171
2022-11-15T06:11:52.295Z,50.877178
2022-11-15T06:12:52.299Z,50.877228
2022-11-15T06:13:52.288Z,50.877213
2022-11-15T06:14:52.285Z,50.877220
2022-11-15T06:15:52.289Z,50.877151
2022-11-15T06:16:52.253Z,50.877167
2022-11-15T06:17:52.248Z,50.877213
2022-11-15T06:18:52.297Z,50.877209
2022-11-15T06:19:52.243Z,50.877190
2022-11-15T06:20:52.245Z,50.877159
2022-11-15T06:21:52.285Z,50.877178
2022-11-15T06:22:52.195Z,50.877213
2022-11-15T06:23:52.194Z,50.877220
2022-11-15T06:24:52.176Z,50.877186
2022-11-15T06:25:52.182Z,50.877213
2022-11-15T06:26:52.176Z,50.877201
2022-11-15T06:27:52.153Z,50.877197
2022-11-15T06:28:52.181Z,50.877201
2022-11-15T06:29:52.118Z,50.877213
2022-11-15T06:30:53.404Z,50.877213
2022-11-15T06:31:53.153Z,50.877205
2022-11-15T06:32:52.099Z,50.877174
2022-11-15T06:33:52.089Z,50.877117
2022-11-15T06:34:52.073Z,50.877182
2022-11-15T06:35:52.075Z,50.877205
2022-11-15T06:36:52.132Z,50.877193
2022-11-15T06:37:52.046Z,50.877201
2022-11-15T06:38:52.063Z,50.877163
2022-11-15T06:39:52.037Z,50.877155
2022-11-15T06:40:52.008Z,50.877197
2022-11-15T06:41:52.008Z,50.877224
2022-11-15T06:42:52.012Z,50.877171
2022-11-15T06:43:51.994Z,50.877182
2022-11-15T06:44:52.000Z,50.877106
2022-11-15T06:45:51.968Z,50.877182
2022-11-15T06:46:51.960Z,50.877201
2022-11-15T06:47:51.950Z,50.877247
2022-11-15T06:48:51.957Z,50.877201
2022-11-15T06:49:51.921Z,50.877224
2022-11-15T06:50:51.934Z,50.877201
2022-11-15T06:51:51.929Z,50.877193
2022-11-15T06:52:51.896Z,50.877232
2022-11-15T06:53:52.013Z,50.877228
2022-11-15T06:54:51.873Z,50.877220
2022-11-15T06:55:55.261Z,50.877163
2022-11-15T06:56:52.858Z,50.877171
2022-11-15T06:57:51.848Z,50.877228
2022-11-15T06:58:51.853Z,50.877224
2022-11-15T06:59:51.856Z,50.877228
2022-11-15T07:00:51.856Z,50.877178
2022-11-15T07:01:51.829Z,50.877190
2022-11-15T07:02:51.818Z,50.877228
2022-11-15T07:03:51.783Z,50.877197
2022-11-15T07:04:51.775Z,50.877136
2022-11-15T07:05:51.771Z,50.877136
2022-11-15T07:06:51.863Z,50.877159
2022-11-15T07:07:51.755Z,50.877151
2022-11-15T07:08:51.769Z,50.877209
2022-11-15T07:09:51.748Z,50.877171
2022-11-15T07:10:51.723Z,50.877102
2022-11-15T07:11:51.723Z,50.877159
2022-11-15T07:12:51.706Z,50.877178
2022-11-15T07:13:51.718Z,50.877159
2022-11-15T07:14:51.691Z,50.877155
2022-11-15T07:15:51.712Z,50.877163
2022-11-15T07:16:51.663Z,50.877129
2022-11-15T07:17:51.656Z,50.877140
2022-11-15T07:18:51.659Z,50.877178
2022-11-15T07:19:51.643Z,50.877193
2022-11-15T07:20:51.633Z,50.877171
2022-11-15T07:21:51.624Z,50.877136
2022-11-15T07:22:51.607Z,50.877125
2022-11-15T07:23:51.628Z,50.877148
2022-11-15T07:24:51.579Z,50.877148
2022-11-15T07:25:51.595Z,50.877174
2022-11-15T07:26:51.617Z,50.877182
2022-11-15T07:27:51.566Z,50.877174
2022-11-15T07:28:51.542Z,50.877159
2022-11-15T07:29:51.553Z,50.877171
2022-11-15T07:30:51.530Z,50.877186
2022-11-15T07:31:51.535Z,50.877186
2022-11-15T07:32:51.556Z,50.877167
2022-11-15T07:33:51.513Z,50.877205
2022-11-15T07:34:51.526Z,50.877193
2022-11-15T07:35:51.481Z,50.877182
2022-11-15T07:36:51.479Z,50.877178
2022-11-15T07:37:51.485Z,50.877190
2022-11-15T07:38:51.445Z,50.877190
2022-11-15T07:39:51.456Z,50.877182
2022-11-15T07:40:51.448Z,50.877232
2022-11-15T07:41:51.439Z,50.877220
2022-11-15T07:42:51.425Z,50.877235
2022-11-15T07:43:51.401Z,50.877182
2022-11-15T07:44:51.424Z,50.877205
2022-11-15T07:45:56.004Z,50.877190
2022-11-15T07:46:53.374Z,50.877182
2022-11-15T07:47:51.466Z,50.877190
2022-11-15T07:48:51.351Z,50.877144
2022-11-15T07:49:51.367Z,50.877182
2022-11-15T07:50:51.332Z,50.877209
2022-11-15T07:51:51.323Z,50.877178
2022-11-15T07:52:51.333Z,50.877228
2022-11-15T07:53:51.329Z,50.877132
2022-11-15T07:54:51.342Z,50.877186
2022-11-15T07:55:51.295Z,50.877197
2022-11-15T07:56:51.283Z,50.877186
2022-11-15T07:57:51.281Z,50.877178
2022-11-15T07:58:51.278Z,50.877197
2022-11-15T07:59:51.254Z,50.877232
2022-11-15T08:00:51.235Z,50.877197
2022-11-15T08:01:51.392Z,50.877167
2022-11-15T08:02:51.405Z,50.877174
2022-11-15T08:03:51.237Z,50.877193
2022-11-15T08:04:51.217Z,50.877144
2022-11-15T08:05:51.192Z,50.877159
2022-11-15T08:06:51.246Z,50.877163
2022-11-15T08:07:52.801Z,50.877190
2022-11-15T08:08:52.214Z,50.877178
2022-11-15T08:09:51.175Z,50.877216
2022-11-15T08:10:51.144Z,50.877205
2022-11-15T08:11:51.139Z,50.877220
2022-11-15T08:12:51.242Z,50.877186
2022-11-15T08:13:51.160Z,50.877167
2022-11-15T08:14:51.165Z,50.877224
2022-11-15T08:15:54.872Z,50.877209
2022-11-15T08:16:52.110Z,50.877216
2022-11-15T08:17:51.086Z,50.877224
2022-11-15T08:18:51.087Z,50.877174
2022-11-15T08:19:51.062Z,50.877220
2022-11-15T08:20:51.057Z,50.877232
2022-11-15T08:21:51.099Z,50.877182
2022-11-15T08:22:51.024Z,50.877232
2022-11-15T08:23:51.032Z,50.877159
2022-11-15T08:24:51.056Z,50.877205
2022-11-15T08:25:51.014Z,50.877213
2022-11-15T08:26:51.042Z,50.877235
2022-11-15T08:27:51.018Z,50.877258
2022-11-15T08:28:50.988Z,50.877254
2022-11-15T08:29:51.817Z,50.877213
2022-11-15T08:30:51.012Z,50.877247
2022-11-15T08:31:50.948Z,50.877224
2022-11-15T08:32:50.931Z,50.877193
2022-11-15T08:33:50.917Z,50.877213
2022-11-15T08:34:50.970Z,50.877174
2022-11-15T08:35:50.924Z,50.877239
2022-11-15T08:36:50.901Z,50.877155
2022-11-15T08:37:50.879Z,50.877209
2022-11-15T08:38:50.941Z,50.877235
2022-11-15T08:39:50.851Z,50.877213
2022-11-15T08:40:50.948Z,50.877171
2022-11-15T08:41:50.854Z,50.877193
2022-11-15T08:42:50.842Z,50.877197
2022-11-15T08:43:50.842Z,50.877186
2022-11-15T08:44:50.900Z,50.877201
2022-11-15T08:45:50.853Z,50.877190
2022-11-15T08:46:50.792Z,50.877186
2022-11-15T08:47:54.120Z,50.877190
2022-11-15T08:48:51.788Z,50.877159
2022-11-15T08:49:50.760Z,50.877182
2022-11-15T08:50:50.750Z,50.877186
2022-11-15T08:51:50.761Z,50.877186
2022-11-15T08:52:51.749Z,50.877163
2022-11-15T08:54:22.611Z,50.877155
2022-11-15T08:54:50.730Z,50.877159
2022-11-15T08:55:50.706Z,50.877144
2022-11-15T08:56:50.744Z,50.877174
2022-11-15T08:57:50.734Z,50.877178
2022-11-15T08:58:50.680Z,50.877197
2022-11-15T08:59:50.654Z,50.877201
2022-11-15T09:00:50.675Z,50.877201
2022-11-15T09:01:50.676Z,50.877224
2022-11-15T09:02:50.623Z,50.877220
2022-11-15T09:03:50.632Z,50.877186
2022-11-15T09:04:50.622Z,50.877197
2022-11-15T09:05:50.988Z,50.877201
2022-11-15T09:06:50.644Z,50.877182
2022-11-15T09:07:50.581Z,50.877159
2022-11-15T09:08:50.595Z,50.877171
2022-11-15T09:09:50.558Z,50.877186
2022-11-15T09:10:50.576Z,50.877171
2022-11-15T09:11:50.575Z,50.877151
2022-11-15T09:12:50.513Z,50.877167
2022-11-15T09:13:50.543Z,50.877159
2022-11-15T09:14:50.501Z,50.877155
2022-11-15T09:15:50.506Z,50.877129
2022-11-15T09:16:50.485Z,50.877140
2022-11-15T09:17:50.480Z,50.877132
2022-11-15T09:18:50.501Z,50.877148
2022-11-15T09:19:50.476Z,50.877117
2022-11-15T09:20:50.455Z,50.877113
2022-11-15T09:21:50.436Z,50.877136
2022-11-15T09:22:50.458Z,50.877125
2022-11-15T09:23:50.431Z,50.877129
2022-11-15T09:24:50.416Z,50.877140
2022-11-15T09:25:50.422Z,50.877140
2022-11-15T09:26:50.462Z,50.877144
2022-11-15T09:27:50.388Z,50.877155
2022-11-15T09:28:50.373Z,50.877178
2022-11-15T09:29:50.362Z,50.877171
2022-11-15T09:30:50.358Z,50.877159
2022-11-15T09:31:50.378Z,50.877163
2022-11-15T09:32:50.369Z,50.877174
2022-11-15T09:33:50.330Z,50.877171
2022-11-15T09:34:50.464Z,50.877163
2022-11-15T09:35:50.361Z,50.877190
2022-11-15T09:36:50.313Z,50.877190
2022-11-15T09:37:55.928Z,50.877190
2022-11-15T09:38:52.298Z,50.877186
2022-11-15T09:39:50.290Z,50.877174
2022-11-15T09:40:50.264Z,50.877186
2022-11-15T09:41:50.256Z,50.877174
2022-11-15T09:42:50.272Z,50.877190
2022-11-15T09:43:50.231Z,50.877193
2022-11-15T09:44:50.229Z,50.877190
2022-11-15T09:45:50.207Z,50.877171
2022-11-15T09:46:50.265Z,50.877174
2022-11-15T09:47:50.189Z,50.877171
2022-11-15T09:48:50.382Z,50.877262
2022-11-15T09:49:53.839Z,50.877361
2022-11-15T09:50:51.165Z,50.877380
2022-11-15T09:51:50.185Z,50.877335
2022-11-15T09:52:50.254Z,50.877186
2022-11-15T09:54:55.471Z,50.877228
2022-11-15T09:55:51.132Z,50.877197
2022-11-15T09:56:50.106Z,50.877201
2022-11-15T09:57:50.220Z,50.877342
2022-11-15T09:58:50.102Z,50.877403
2022-11-15T09:59:50.108Z,50.877434
2022-11-15T10:00:50.271Z,50.877434
2022-11-15T10:01:50.163Z,50.877365
2022-11-15T10:02:50.107Z,50.877357
2022-11-15T10:03:50.056Z,50.877331
2022-11-15T10:04:50.023Z,50.877270
2022-11-15T10:05:50.047Z,50.877270
2022-11-15T10:06:50.079Z,50.877308
2022-11-15T10:07:50.004Z,50.877266
2022-11-15T10:08:49.977Z,50.877258
2022-11-15T10:09:49.976Z,50.877266
2022-11-15T10:10:50.000Z,50.877262
2022-11-15T10:11:49.960Z,50.877251
2022-11-15T10:12:49.947Z,50.877216
2022-11-15T10:13:49.933Z,50.877228
2022-11-15T10:14:54.356Z,50.877254
2022-11-15T10:15:50.954Z,50.877262
2022-11-15T10:16:49.956Z,50.877266
2022-11-15T10:17:49.896Z,50.877266
2022-11-15T10:18:49.914Z,50.877266
2022-11-15T10:19:49.876Z,50.877266
2022-11-15T10:20:49.876Z,50.877266
2022-11-15T10:21:49.885Z,50.877266
2022-11-15T10:22:49.886Z,50.877266
2022-11-15T10:23:49.834Z,50.876911
2022-11-15T10:24:49.818Z,50.877060
2022-11-15T10:25:49.818Z,50.877060
2022-11-15T10:26:49.804Z,50.877125
2022-11-15T10:27:49.850Z,50.877201
2022-11-15T10:28:49.811Z,50.877193
2022-11-15T10:29:49.788Z,50.877197
2022-11-15T10:30:49.764Z,50.877232
2022-11-15T10:31:49.782Z,50.877224
2022-11-15T10:32:49.830Z,50.877159
2022-11-15T10:33:49.764Z,50.877258
2022-11-15T10:34:49.769Z,50.877312
2022-11-15T10:35:49.787Z,50.877300
2022-11-15T10:36:50.523Z,50.877274
2022-11-15T10:37:50.696Z,50.877369
2022-11-15T10:38:49.721Z,50.877399
2022-11-15T10:39:49.782Z,50.877472
2022-11-15T10:40:49.690Z,50.877384
2022-11-15T10:41:49.718Z,50.877426
2022-11-15T10:42:49.663Z,50.877380
2022-11-15T10:43:49.660Z,50.877335
2022-11-15T10:44:49.634Z,50.877308
2022-11-15T10:45:49.611Z,50.877346
2022-11-15T10:46:49.638Z,50.877327
2022-11-15T10:47:49.627Z,50.877426
2022-11-15T10:48:49.588Z,50.877419
2022-11-15T10:49:49.658Z,50.877407
2022-11-15T10:50:49.603Z,50.877392
2022-11-15T10:51:49.569Z,50.877392
2022-11-15T10:52:49.556Z,50.877361
2022-11-15T10:53:49.542Z,50.877316
2022-11-15T10:54:49.544Z,50.877316
2022-11-15T10:55:49.516Z,50.877316
2022-11-15T10:56:49.500Z,50.877316
2022-11-15T10:57:49.542Z,50.877316
2022-11-15T10:58:49.498Z,50.877247
2022-11-15T10:59:49.487Z,50.877216
2022-11-15T11:00:49.485Z,50.877209
2022-11-15T11:01:49.470Z,50.877216
2022-11-15T11:02:49.507Z,50.877182
2022-11-15T11:03:49.443Z,50.877254
2022-11-15T11:04:49.432Z,50.877258
2022-11-15T11:05:49.433Z,50.877213
2022-11-15T11:06:49.509Z,50.877213
2022-11-15T11:07:49.427Z,50.877239
2022-11-15T11:08:49.428Z,50.877220
2022-11-15T11:09:49.381Z,50.877243
2022-11-15T11:10:52.767Z,50.877216
2022-11-15T11:11:50.408Z,50.877224
2022-11-15T11:12:49.353Z,50.877296
2022-11-15T11:13:49.364Z,50.877129
2022-11-15T11:14:49.326Z,50.877247
2022-11-15T11:15:49.323Z,50.877228
2022-11-15T11:16:49.329Z,50.877239
2022-11-15T11:17:49.296Z,50.877266
2022-11-15T11:18:49.332Z,50.877293
2022-11-15T11:19:49.284Z,50.877224
2022-11-15T11:20:49.274Z,50.877174
2022-11-15T11:21:49.354Z,50.877213
2022-11-15T11:22:49.247Z,50.877193
2022-11-15T11:23:49.298Z,50.877251
2022-11-15T11:24:49.352Z,50.877251
2022-11-15T11:25:49.248Z,50.877277